createdAt,value
2023-05-09T00:02:24.778Z,12.40
2023-05-09T00:04:51.266Z,13.70
2023-05-09T00:07:17.651Z,14.00
2023-05-09T00:09:44.009Z,15.80
2023-05-09T00:12:11.634Z,12.60
2023-05-09T00:14:39.906Z,13.00
2023-05-09T00:17:07.181Z,18.40
2023-05-09T00:19:33.465Z,12.80
2023-05-09T00:21:59.785Z,13.20
2023-05-09T00:24:26.215Z,11.70
2023-05-09T00:26:52.569Z,18.00
2023-05-09T00:29:19.103Z,14.60
2023-05-09T00:31:45.422Z,15.00
2023-05-09T00:34:11.720Z,13.80
2023-05-09T00:36:38.018Z,22.40
2023-05-09T00:39:04.839Z,19.50
2023-05-09T00:41:31.169Z,17.70
2023-05-09T00:43:57.436Z,17.40
2023-05-09T00:46:23.877Z,18.10
2023-05-09T00:48:51.673Z,23.60
2023-05-09T00:51:22.500Z,18.70
2023-05-09T00:53:49.895Z,24.00
2023-05-09T00:56:16.426Z,14.90
2023-05-09T00:58:43.296Z,16.20
2023-05-09T01:01:09.868Z,18.90
2023-05-09T01:03:41.689Z,20.50
2023-05-09T01:06:20.442Z,24.20
2023-05-09T01:08:58.943Z,20.10
2023-05-09T01:11:41.091Z,24.70
2023-05-09T01:14:26.042Z,19.10
2023-05-09T01:17:13.984Z,21.30
2023-05-09T01:19:58.113Z,19.40
2023-05-09T01:22:31.289Z,25.50
2023-05-09T01:25:10.056Z,19.00
2023-05-09T01:27:56.897Z,22.30
2023-05-09T01:30:25.286Z,28.50
2023-05-09T01:32:55.770Z,21.60
2023-05-09T01:35:25.717Z,23.90
2023-05-09T01:37:54.147Z,20.60
2023-05-09T01:40:22.548Z,17.50
2023-05-09T01:42:57.678Z,24.20
2023-05-09T01:45:26.305Z,21.20
2023-05-09T01:47:53.376Z,18.30
2023-05-09T01:50:21.859Z,23.20
2023-05-09T01:52:51.485Z,21.20
2023-05-09T01:55:19.330Z,22.70
2023-05-09T01:57:49.604Z,26.90
2023-05-09T02:00:19.352Z,22.90
2023-05-09T02:02:46.052Z,24.30
2023-05-09T02:05:14.992Z,25.90
2023-05-09T02:07:42.281Z,21.70
2023-05-09T02:10:09.605Z,27.60
2023-05-09T02:12:37.710Z,31.50
2023-05-09T02:15:05.349Z,26.30
2023-05-09T02:17:32.163Z,24.10
2023-05-09T02:20:04.509Z,26.10
2023-05-09T02:22:30.829Z,26.10
2023-05-09T02:25:00.085Z,22.20
2023-05-09T02:27:27.153Z,33.20
2023-05-09T02:29:57.670Z,26.40
2023-05-09T02:32:27.991Z,30.00
2023-05-09T02:34:55.493Z,24.50
2023-05-09T02:37:22.870Z,33.60
2023-05-09T02:39:49.264Z,28.50
2023-05-09T02:42:24.487Z,32.80
2023-05-09T02:44:51.657Z,27.30
2023-05-09T02:47:17.960Z,26.80
2023-05-09T02:49:44.303Z,32.10
2023-05-09T02:52:11.218Z,27.80
2023-05-09T02:54:37.940Z,30.90
2023-05-09T02:57:04.713Z,34.30
2023-05-09T02:59:31.403Z,33.20
2023-05-09T03:02:00.393Z,34.00
2023-05-09T03:04:26.874Z,32.50
2023-05-09T03:06:53.148Z,32.80
2023-05-09T03:09:19.705Z,36.50
2023-05-09T03:11:46.014Z,33.40
2023-05-09T03:14:14.145Z,48.40
2023-05-09T03:16:40.622Z,46.80
2023-05-09T03:19:11.628Z,39.00
2023-05-09T03:21:38.769Z,44.00
2023-05-09T03:24:06.913Z,44.80
2023-05-09T03:26:35.029Z,44.30
2023-05-09T03:29:02.181Z,46.10
2023-05-09T03:31:28.514Z,48.40
2023-05-09T03:33:54.867Z,52.30
2023-05-09T03:36:22.480Z,46.30
2023-05-09T03:38:49.021Z,52.00
2023-05-09T03:41:16.565Z,47.90
2023-05-09T03:43:43.537Z,50.80
2023-05-09T03:46:09.862Z,51.90
2023-05-09T03:48:36.400Z,58.70
2023-05-09T03:51:02.885Z,48.40
2023-05-09T03:53:29.575Z,48.30
2023-05-09T03:55:56.008Z,48.40
2023-05-09T03:58:22.431Z,48.50
2023-05-09T04:00:48.932Z,43.20
2023-05-09T04:03:31.352Z,47.30
2023-05-09T04:05:57.960Z,43.10
2023-05-09T04:08:29.120Z,47.80
2023-05-09T04:10:55.490Z,43.10
2023-05-09T04:13:22.218Z,42.70
2023-05-09T04:15:48.941Z,44.90
2023-05-09T04:18:15.358Z,46.10
2023-05-09T04:20:41.658Z,43.00
2023-05-09T04:23:08.308Z,46.10
2023-05-09T04:25:34.836Z,47.30
2023-05-09T04:28:01.642Z,44.80
2023-05-09T04:30:28.434Z,41.20
2023-05-09T04:32:55.421Z,43.00
2023-05-09T04:35:22.578Z,42.40
2023-05-09T04:37:50.720Z,41.30
2023-05-09T04:40:17.242Z,39.90
2023-05-09T04:42:49.144Z,37.50
2023-05-09T04:45:16.660Z,39.80
2023-05-09T04:47:43.524Z,34.60
2023-05-09T04:50:10.413Z,38.30
2023-05-09T04:52:36.717Z,39.30
2023-05-09T04:55:03.177Z,38.30
2023-05-09T04:57:32.769Z,38.00
2023-05-09T04:59:59.030Z,31.30
2023-05-09T05:02:25.592Z,34.90
2023-05-09T05:04:56.110Z,37.00
2023-05-09T05:07:26.778Z,32.70
2023-05-09T05:09:53.606Z,27.40
2023-05-09T05:12:20.133Z,33.20
2023-05-09T05:14:46.765Z,28.70
2023-05-09T05:17:17.507Z,30.30
2023-05-09T05:19:44.314Z,25.80
2023-05-09T05:22:11.143Z,28.50
2023-05-09T05:24:38.860Z,34.70
2023-05-09T05:27:05.242Z,24.90
2023-05-09T05:29:31.902Z,24.30
2023-05-09T05:32:00.844Z,20.60
2023-05-09T05:34:27.411Z,25.50
2023-05-09T05:36:53.906Z,22.90
2023-05-09T05:39:20.607Z,19.90
2023-05-09T05:41:47.804Z,14.40
2023-05-09T05:44:14.783Z,15.90
2023-05-09T05:46:41.491Z,12.90
2023-05-09T05:49:08.006Z,17.70
2023-05-09T05:51:37.764Z,14.30
2023-05-09T05:54:04.953Z,17.20
2023-05-09T05:56:31.696Z,12.30
2023-05-09T05:58:58.196Z,12.50
2023-05-09T06:01:24.608Z,11.90
2023-05-09T06:03:54.112Z,14.20
2023-05-09T06:06:21.583Z,13.40
2023-05-09T06:08:49.340Z,9.80
2023-05-09T06:11:16.266Z,10.20
2023-05-09T06:13:42.990Z,11.30
2023-05-09T06:16:19.556Z,8.80
2023-05-09T06:18:48.884Z,6.70
2023-05-09T06:21:15.409Z,7.90
2023-05-09T06:23:57.143Z,8.50
2023-05-09T06:26:28.905Z,10.50
2023-05-09T06:28:55.701Z,7.40
2023-05-09T06:31:23.536Z,7.70
2023-05-09T06:33:52.586Z,9.20
2023-05-09T06:36:22.370Z,13.10
2023-05-09T06:38:51.459Z,9.70
2023-05-09T06:41:17.975Z,8.70
2023-05-09T06:43:44.959Z,9.40
2023-05-09T06:46:11.513Z,8.40
2023-05-09T06:48:38.095Z,16.70
2023-05-09T06:51:04.998Z,10.30
2023-05-09T06:53:31.792Z,11.20
2023-05-09T06:56:00.495Z,6.40
2023-05-09T06:58:27.848Z,8.60
2023-05-09T07:00:55.476Z,7.80
2023-05-09T07:03:22.667Z,5.50
2023-05-09T07:05:51.814Z,7.50
2023-05-09T07:08:18.464Z,6.70
2023-05-09T07:10:45.147Z,7.20
2023-05-09T07:13:11.784Z,6.10
2023-05-09T07:15:41.854Z,9.60
2023-05-09T07:18:09.429Z,5.50
2023-05-09T07:20:36.448Z,8.50
2023-05-09T07:23:03.721Z,4.40
2023-05-09T07:25:30.205Z,7.90
2023-05-09T07:27:56.875Z,6.70
2023-05-09T07:30:23.518Z,5.40
2023-05-09T07:32:51.123Z,5.10
2023-05-09T07:35:19.160Z,3.90
2023-05-09T07:37:45.724Z,6.30
2023-05-09T07:40:12.784Z,7.50
2023-05-09T07:42:39.483Z,8.00
2023-05-09T07:45:06.738Z,8.50
2023-05-09T07:47:33.215Z,1.90
2023-05-09T07:49:59.755Z,4.00
2023-05-09T07:52:26.212Z,5.10
2023-05-09T07:54:53.836Z,5.70
2023-05-09T07:57:20.167Z,2.10
2023-05-09T07:59:48.850Z,1.80
2023-05-09T08:02:15.433Z,2.80
2023-05-09T08:04:47.973Z,4.30
2023-05-09T08:07:14.504Z,5.50
2023-05-09T08:09:41.209Z,3.40
2023-05-09T08:12:07.740Z,3.50
2023-05-09T08:14:34.263Z,2.90
2023-05-09T08:17:00.815Z,2.10
2023-05-09T08:19:27.248Z,5.50
2023-05-09T08:21:53.736Z,3.00
2023-05-09T08:24:20.503Z,1.70
2023-05-09T08:26:49.825Z,4.40
2023-05-09T08:29:18.999Z,2.10
2023-05-09T08:31:53.320Z,1.60
2023-05-09T08:34:20.607Z,3.30
2023-05-09T08:36:49.494Z,2.90
2023-05-09T08:39:16.067Z,3.10
2023-05-09T08:42:08.293Z,1.60
2023-05-09T08:44:40.015Z,1.90
2023-05-09T08:47:07.295Z,2.70
2023-05-09T08:49:35.047Z,1.80
2023-05-09T08:52:02.071Z,2.10
2023-05-09T08:54:32.050Z,1.70
2023-05-09T08:57:00.461Z,2.30
2023-05-09T08:59:28.150Z,2.30
2023-05-09T09:01:55.107Z,1.70
2023-05-09T09:04:21.679Z,4.50
2023-05-09T09:06:48.264Z,6.70
2023-05-09T09:09:16.521Z,4.00
2023-05-09T09:11:43.873Z,4.00
2023-05-09T09:14:22.951Z,1.90
2023-05-09T09:16:51.118Z,2.00
2023-05-09T09:19:19.618Z,3.20
2023-05-09T09:21:46.909Z,2.20
2023-05-09T09:24:14.190Z,5.80
2023-05-09T09:26:47.278Z,3.00
2023-05-09T09:29:14.548Z,2.60
2023-05-09T09:31:44.600Z,1.90
2023-05-09T09:34:13.577Z,2.80
2023-05-09T09:36:40.515Z,2.30
2023-05-09T09:39:08.508Z,2.80
2023-05-09T09:41:39.120Z,2.50
2023-05-09T09:44:10.164Z,2.40
2023-05-09T09:46:45.950Z,6.50
2023-05-09T09:49:14.095Z,4.30
2023-05-09T09:51:41.091Z,3.90
2023-05-09T09:54:09.518Z,4.00
2023-05-09T09:56:44.327Z,2.20
2023-05-09T09:59:15.938Z,3.60
2023-05-09T10:02:06.683Z,2.10
2023-05-09T10:04:36.404Z,2.50
2023-05-09T10:07:05.515Z,3.80
2023-05-09T10:09:33.785Z,3.10
2023-05-09T10:12:06.106Z,2.60
2023-05-09T10:14:35.574Z,2.30
2023-05-09T10:17:04.419Z,3.50
2023-05-09T10:19:34.032Z,3.00
2023-05-09T10:22:07.484Z,1.50
2023-05-09T10:24:39.759Z,5.20
2023-05-09T10:29:44.895Z,2.10
2023-05-09T10:32:18.672Z,3.20
2023-05-09T10:34:48.688Z,2.70
2023-05-09T10:37:15.449Z,3.60
2023-05-09T10:39:43.299Z,5.00
2023-05-09T10:42:10.394Z,2.80
2023-05-09T10:44:36.957Z,3.80
2023-05-09T10:47:03.836Z,2.10
2023-05-09T10:49:31.344Z,4.40
2023-05-09T10:51:57.773Z,3.90
2023-05-09T10:54:30.859Z,5.60
2023-05-09T10:56:57.641Z,2.90
2023-05-09T10:59:37.692Z,1.90
2023-05-09T11:02:04.963Z,2.10
2023-05-09T11:04:31.958Z,2.00
2023-05-09T11:06:59.745Z,3.80
2023-05-09T11:09:38.371Z,2.10
2023-05-09T11:12:04.845Z,3.90
2023-05-09T11:14:38.885Z,3.00
2023-05-09T11:17:07.753Z,7.30
2023-05-09T11:19:46.538Z,2.90
2023-05-09T11:22:15.288Z,2.00
2023-05-09T11:24:46.727Z,1.90
2023-05-09T11:27:19.633Z,2.50
2023-05-09T11:29:51.467Z,3.50
2023-05-09T11:32:19.222Z,2.50
2023-05-09T11:34:46.602Z,2.10
2023-05-09T11:37:16.081Z,2.90
2023-05-09T11:40:00.189Z,3.20
2023-05-09T11:42:31.167Z,3.90
2023-05-09T11:44:58.446Z,3.40
2023-05-09T11:47:25.866Z,1.60
2023-05-09T11:49:52.357Z,3.20
2023-05-09T11:52:20.162Z,2.00
2023-05-09T11:54:46.939Z,1.60
2023-05-09T11:57:16.742Z,3.70
2023-05-09T11:59:44.816Z,1.50
2023-05-09T12:02:12.522Z,4.30
2023-05-09T12:04:45.794Z,2.90
2023-05-09T12:12:56.327Z,1.60
2023-05-09T12:15:23.202Z,4.70
2023-05-09T12:18:04.394Z,1.60
2023-05-09T12:20:46.865Z,1.60
2023-05-09T12:23:14.790Z,3.30
2023-05-09T12:25:52.059Z,4.80
2023-05-09T12:28:21.849Z,4.40
2023-05-09T12:30:49.228Z,3.10
2023-05-09T12:33:16.094Z,3.40
2023-05-09T12:35:47.190Z,4.60
2023-05-09T12:38:20.015Z,2.80
2023-05-09T12:41:02.170Z,4.40
2023-05-09T12:43:34.609Z,5.10
2023-05-09T12:46:02.222Z,2.00
2023-05-09T12:48:33.848Z,3.70
2023-05-09T12:51:07.420Z,3.00
2023-05-09T12:53:38.782Z,3.20
2023-05-09T12:56:13.070Z,1.70
2023-05-09T12:58:39.471Z,1.90
2023-05-09T13:01:06.066Z,4.10
2023-05-09T13:03:37.248Z,4.80
2023-05-09T13:06:05.877Z,3.30
2023-05-09T13:08:35.228Z,4.70
2023-05-09T13:11:15.028Z,1.70
2023-05-09T13:13:42.832Z,2.60
2023-05-09T13:16:10.994Z,4.20
2023-05-09T13:18:38.595Z,4.50
2023-05-09T13:21:04.999Z,4.60
2023-05-09T13:23:31.399Z,2.50
2023-05-09T13:25:57.708Z,3.70
2023-05-09T13:28:24.132Z,3.80
2023-05-09T13:30:50.575Z,5.30
2023-05-09T13:33:25.768Z,2.50
2023-05-09T13:35:53.223Z,4.80
2023-05-09T13:38:19.674Z,3.30
2023-05-09T13:40:45.970Z,4.40
2023-05-09T13:43:12.346Z,3.60
2023-05-09T13:45:38.858Z,1.70
2023-05-09T13:48:05.763Z,1.80
2023-05-09T13:50:33.494Z,3.20
2023-05-09T13:52:59.787Z,4.40
2023-05-09T13:55:26.864Z,3.20
2023-05-09T13:57:53.264Z,1.70
2023-05-09T14:00:20.692Z,2.20
2023-05-09T14:02:47.523Z,1.30
2023-05-09T14:05:13.862Z,2.40
2023-05-09T14:07:41.833Z,4.80
2023-05-09T14:10:11.897Z,2.30
2023-05-09T14:12:39.855Z,2.50
2023-05-09T14:15:07.596Z,1.90
2023-05-09T14:17:34.003Z,2.90
2023-05-09T14:20:03.466Z,2.90
2023-05-09T14:22:31.806Z,2.20
2023-05-09T14:24:58.048Z,2.80
2023-05-09T14:27:24.409Z,4.80
2023-05-09T14:29:51.110Z,3.40
2023-05-09T14:32:17.548Z,2.10
2023-05-09T14:34:44.897Z,1.80
2023-05-09T14:37:13.953Z,3.60
2023-05-09T14:39:48.722Z,6.00
2023-05-09T14:42:15.942Z,2.30
2023-05-09T14:44:42.442Z,1.60
2023-05-09T14:47:09.188Z,3.40
2023-05-09T14:49:36.705Z,3.60
2023-05-09T14:52:03.070Z,4.90
2023-05-09T14:54:29.511Z,1.80
2023-05-09T14:56:56.577Z,2.00
2023-05-09T14:59:22.892Z,4.70
2023-05-09T15:01:51.053Z,1.30
2023-05-09T15:04:17.434Z,2.20
2023-05-09T15:06:44.730Z,2.60
2023-05-09T15:09:12.091Z,1.60
2023-05-09T15:11:47.769Z,2.40
2023-05-09T15:14:15.736Z,3.70
2023-05-09T15:16:42.280Z,1.60
2023-05-09T15:19:08.732Z,2.10
2023-05-09T15:21:35.258Z,2.90
2023-05-09T15:24:01.707Z,3.60
2023-05-09T15:26:28.155Z,4.90
2023-05-09T15:28:54.428Z,4.30
2023-05-09T15:31:22.503Z,2.10
2023-05-09T15:33:49.290Z,1.80
2023-05-09T15:36:15.739Z,2.90
2023-05-09T15:38:48.439Z,4.80
2023-05-09T15:41:15.302Z,3.00
2023-05-09T15:43:41.643Z,2.20
2023-05-09T15:46:08.134Z,2.30
2023-05-09T15:48:34.531Z,6.70
2023-05-09T15:51:01.995Z,3.20
2023-05-09T15:53:28.686Z,3.10
2023-05-09T15:55:56.104Z,2.50
2023-05-09T15:58:22.817Z,4.50
2023-05-09T16:00:49.397Z,1.60
2023-05-09T16:03:16.050Z,1.60
2023-05-09T16:05:43.051Z,3.80
2023-05-09T16:08:09.353Z,2.50
2023-05-09T16:10:35.894Z,3.60
2023-05-09T16:13:04.342Z,3.80
2023-05-09T16:15:30.716Z,3.10
2023-05-09T16:17:57.179Z,3.80
2023-05-09T16:20:23.492Z,2.20
2023-05-09T16:22:49.925Z,4.00
2023-05-09T16:25:16.476Z,3.60
2023-05-09T16:27:43.245Z,5.00
2023-05-09T16:30:10.273Z,6.50
2023-05-09T16:32:36.787Z,2.50
2023-05-09T16:35:03.456Z,3.70
2023-05-09T16:37:29.767Z,3.00
2023-05-09T16:39:57.164Z,5.00
2023-05-09T16:42:23.537Z,2.20
2023-05-09T16:44:49.968Z,4.60
2023-05-09T16:47:16.226Z,2.50
2023-05-09T16:49:42.535Z,2.10
2023-05-09T16:52:08.853Z,3.30
2023-05-09T16:54:35.164Z,2.70
2023-05-09T16:57:02.482Z,3.70
2023-05-09T16:59:28.772Z,4.50
2023-05-09T17:01:56.904Z,2.30
2023-05-09T17:04:24.515Z,3.90
2023-05-09T17:06:51.155Z,4.90
2023-05-09T17:09:17.993Z,5.10
2023-05-09T17:11:44.264Z,3.40
2023-05-09T17:14:10.552Z,6.50
2023-05-09T17:16:38.117Z,6.20
2023-05-09T17:19:04.725Z,5.50
2023-05-09T17:21:31.604Z,3.70
2023-05-09T17:23:57.880Z,2.80
2023-05-09T17:26:25.067Z,7.00
2023-05-09T17:28:51.306Z,4.30
2023-05-09T17:31:17.638Z,4.70
2023-05-09T17:33:44.165Z,3.10
2023-05-09T17:36:10.474Z,4.30
2023-05-09T17:38:36.752Z,2.10
2023-05-09T17:41:03.641Z,4.40
2023-05-09T17:43:31.173Z,3.90
2023-05-09T17:45:58.193Z,2.50
2023-05-09T17:48:24.543Z,5.10
2023-05-09T17:50:50.800Z,2.70
2023-05-09T17:53:17.631Z,5.50
2023-05-09T17:55:43.946Z,3.50
2023-05-09T17:58:10.324Z,2.20
2023-05-09T18:00:36.885Z,3.90
2023-05-09T18:03:03.333Z,4.50
2023-05-09T18:05:29.858Z,3.50
2023-05-09T18:07:56.804Z,4.00
2023-05-09T18:10:23.028Z,5.80
2023-05-09T18:12:49.291Z,3.90
2023-05-09T18:15:15.664Z,3.80
2023-05-09T18:17:45.390Z,4.00
2023-05-09T18:20:11.841Z,3.80
2023-05-09T18:22:38.137Z,4.30
2023-05-09T18:25:04.868Z,7.00
2023-05-09T18:27:31.159Z,9.10
2023-05-09T18:29:57.498Z,2.30
2023-05-09T18:32:23.839Z,3.90
2023-05-09T18:34:50.248Z,3.30
2023-05-09T18:37:16.930Z,4.00
2023-05-09T18:39:43.258Z,7.10
2023-05-09T18:42:09.640Z,5.20
2023-05-09T18:44:36.688Z,4.60
2023-05-09T18:47:02.996Z,7.90
2023-05-09T18:49:29.325Z,5.80
2023-05-09T18:51:55.791Z,3.60
2023-05-09T18:54:22.157Z,4.60
2023-05-09T18:56:48.877Z,3.80
2023-05-09T18:59:16.431Z,4.10
2023-05-09T19:01:43.365Z,4.40
2023-05-09T19:04:12.304Z,7.00
2023-05-09T19:06:38.907Z,6.40
2023-05-09T19:09:05.366Z,4.40
2023-05-09T19:11:31.752Z,7.80
2023-05-09T19:13:58.194Z,5.20
2023-05-09T19:16:25.837Z,6.50
2023-05-09T19:18:59.075Z,4.50
2023-05-09T19:21:25.280Z,4.60
2023-05-09T19:23:51.705Z,8.50
2023-05-09T19:26:21.003Z,5.60
2023-05-09T19:28:47.446Z,5.40
2023-05-09T19:31:18.021Z,5.80
2023-05-09T19:33:46.763Z,7.40
2023-05-09T19:36:17.143Z,4.80
2023-05-09T19:38:43.517Z,7.20
2023-05-09T19:41:10.348Z,11.70
2023-05-09T19:43:37.212Z,9.00
2023-05-09T19:46:03.652Z,13.60
2023-05-09T19:48:30.116Z,12.00
2023-05-09T19:50:59.887Z,11.50
2023-05-09T19:53:26.292Z,16.10
2023-05-09T19:55:52.720Z,9.80
2023-05-09T19:58:19.273Z,8.20
2023-05-09T20:00:47.392Z,6.60
2023-05-09T20:03:13.983Z,7.80
2023-05-09T20:05:44.518Z,5.70
2023-05-09T20:08:10.722Z,5.70
2023-05-09T20:10:39.574Z,5.90
2023-05-09T20:13:06.068Z,8.40
2023-05-09T20:15:32.643Z,8.30
2023-05-09T20:18:02.850Z,5.80
2023-05-09T20:20:33.142Z,8.80
2023-05-09T20:22:59.468Z,7.00
2023-05-09T20:25:28.991Z,8.60
2023-05-09T20:27:55.425Z,12.10
2023-05-09T20:30:21.732Z,9.50
2023-05-09T20:32:48.044Z,4.90
2023-05-09T20:35:14.500Z,6.70
2023-05-09T20:37:41.326Z,10.20
2023-05-09T20:40:08.507Z,8.80
2023-05-09T20:42:35.031Z,6.90
2023-05-09T20:45:01.532Z,10.30
2023-05-09T20:47:27.869Z,7.40
2023-05-09T20:49:55.801Z,7.50
2023-05-09T20:52:23.026Z,9.10
2023-05-09T20:54:49.237Z,10.30
2023-05-09T20:57:15.559Z,6.80
2023-05-09T20:59:41.872Z,10.40
2023-05-09T21:02:08.166Z,11.50
2023-05-09T21:04:34.500Z,7.40
2023-05-09T21:07:00.976Z,10.20
2023-05-09T21:09:27.283Z,8.10
2023-05-09T21:11:56.435Z,10.20
2023-05-09T21:14:22.666Z,8.40
2023-05-09T21:16:54.154Z,8.80
2023-05-09T21:19:22.059Z,8.90
2023-05-09T21:21:48.277Z,10.30
2023-05-09T21:24:14.745Z,7.30
2023-05-09T21:26:44.198Z,7.40
2023-05-09T21:29:13.584Z,8.40
2023-05-09T21:31:40.061Z,9.20
2023-05-09T21:34:09.212Z,15.60
2023-05-09T21:36:42.399Z,8.40
2023-05-09T21:39:09.674Z,9.20
2023-05-09T21:41:37.823Z,8.60
2023-05-09T21:44:04.758Z,8.80
2023-05-09T21:46:34.207Z,9.20
2023-05-09T21:49:00.689Z,12.10
2023-05-09T21:51:27.721Z,9.70
2023-05-09T21:53:54.202Z,8.90
2023-05-09T21:56:22.167Z,6.70
2023-05-09T21:58:48.406Z,8.20
2023-05-09T22:01:15.931Z,10.10
2023-05-09T22:03:42.322Z,7.50
2023-05-09T22:06:08.627Z,8.60
2023-05-09T22:08:34.863Z,6.80
2023-05-09T22:11:01.078Z,8.60
2023-05-09T22:13:28.029Z,11.40
2023-05-09T22:15:54.815Z,9.30
2023-05-09T22:18:21.230Z,7.60
2023-05-09T22:20:47.544Z,9.40
2023-05-09T22:23:13.891Z,8.50
2023-05-09T22:25:40.289Z,8.50
2023-05-09T22:28:06.573Z,8.40
2023-05-09T22:30:32.800Z,10.30
2023-05-09T22:32:59.377Z,7.30
2023-05-09T22:35:25.815Z,7.40
2023-05-09T22:37:52.058Z,8.00
2023-05-09T22:40:18.353Z,9.30
2023-05-09T22:42:44.593Z,10.20
2023-05-09T22:45:10.878Z,7.80
2023-05-09T22:47:37.506Z,9.40
2023-05-09T22:50:04.126Z,9.50
2023-05-09T22:52:30.923Z,10.20
2023-05-09T22:54:57.262Z,9.00
2023-05-09T22:57:23.566Z,10.30
2023-05-09T22:59:50.412Z,6.70
2023-05-09T23:02:16.750Z,10.20
2023-05-09T23:04:43.116Z,9.30
2023-05-09T23:07:09.443Z,9.80
2023-05-09T23:09:35.767Z,8.60
2023-05-09T23:12:02.795Z,13.00
2023-05-09T23:14:29.079Z,8.40
2023-05-09T23:16:55.953Z,10.10
2023-05-09T23:19:22.401Z,10.90
2023-05-09T23:21:48.715Z,9.50
2023-05-09T23:24:15.041Z,10.50
2023-05-09T23:26:41.361Z,9.80
2023-05-09T23:29:07.628Z,9.50
2023-05-09T23:31:34.036Z,12.00
2023-05-09T23:34:00.361Z,8.00
2023-05-09T23:36:27.453Z,11.30
2023-05-09T23:38:53.721Z,11.80
2023-05-09T23:41:21.222Z,9.00
2023-05-09T23:43:47.651Z,8.20
2023-05-09T23:46:13.917Z,11.70
2023-05-09T23:48:40.831Z,11.00
2023-05-09T23:51:07.121Z,12.10
2023-05-09T23:53:34.357Z,9.10
2023-05-09T23:56:01.611Z,7.60
2023-05-09T23:58:27.895Z,15.80
